createdAt,value
2022-10-10T00:00:58.721Z,13.40
2022-10-10T00:03:25.524Z,13.44
2022-10-10T00:05:52.043Z,13.38
2022-10-10T00:08:18.517Z,13.55
2022-10-10T00:10:45.007Z,13.40
2022-10-10T00:13:12.374Z,13.29
2022-10-10T00:15:38.876Z,13.25
2022-10-10T00:18:08.955Z,13.24
2022-10-10T00:20:37.990Z,13.09
2022-10-10T00:23:04.807Z,13.13
2022-10-10T00:25:31.380Z,13.25
2022-10-10T00:28:01.649Z,13.38
2022-10-10T00:30:28.441Z,13.37
2022-10-10T00:32:54.991Z,13.34
2022-10-10T00:35:21.534Z,13.35
2022-10-10T00:37:48.015Z,13.49
2022-10-10T00:40:14.704Z,13.63
2022-10-10T00:42:41.259Z,13.46
2022-10-10T00:45:31.674Z,13.46
2022-10-10T00:48:24.268Z,13.48
2022-10-10T00:50:52.582Z,13.43
2022-10-10T00:53:23.417Z,13.35
2022-10-10T00:55:50.862Z,13.26
2022-10-10T00:58:18.894Z,13.36
2022-10-10T01:00:45.584Z,13.34
2022-10-10T01:03:12.327Z,13.41
2022-10-10T01:05:41.646Z,13.51
2022-10-10T01:08:11.527Z,13.45
2022-10-10T01:11:10.418Z,13.46
2022-10-10T01:13:59.718Z,13.43
2022-10-10T01:16:57.355Z,13.43
2022-10-10T01:19:23.787Z,13.42
2022-10-10T01:22:25.461Z,13.42
2022-10-10T01:25:10.934Z,13.36
2022-10-10T01:27:51.941Z,13.35
2022-10-10T01:30:22.238Z,13.42
2022-10-10T01:32:53.473Z,13.41
2022-10-10T01:35:45.019Z,13.47
2022-10-10T01:38:35.358Z,13.54
2022-10-10T01:41:19.967Z,13.49
2022-10-10T01:43:46.610Z,13.47
2022-10-10T01:46:16.542Z,13.33
2022-10-10T01:48:46.236Z,13.42
2022-10-10T01:51:37.677Z,13.57
2022-10-10T01:54:25.884Z,13.54
2022-10-10T01:57:13.561Z,13.54
2022-10-10T02:00:10.793Z,13.54
2022-10-10T02:02:52.251Z,13.56
2022-10-10T02:05:39.199Z,13.51
2022-10-10T02:08:24.078Z,13.58
2022-10-10T02:10:55.565Z,13.78
2022-10-10T02:13:27.424Z,13.78
2022-10-10T02:15:57.395Z,13.81
2022-10-10T02:18:29.150Z,13.82
2022-10-10T02:20:56.126Z,13.96
2022-10-10T02:23:22.895Z,13.91
2022-10-10T02:25:55.242Z,14.13
2022-10-10T02:28:31.033Z,13.96
2022-10-10T02:31:01.301Z,13.95
2022-10-10T02:33:36.905Z,13.89
2022-10-10T02:36:04.233Z,13.94
2022-10-10T02:38:31.147Z,13.91
2022-10-10T02:41:03.992Z,13.88
2022-10-10T02:43:34.693Z,14.02
2022-10-10T02:46:04.547Z,14.17
2022-10-10T02:48:31.049Z,14.11
2022-10-10T02:50:57.800Z,13.96
2022-10-10T02:53:24.695Z,13.86
2022-10-10T02:55:51.192Z,13.60
2022-10-10T02:58:18.879Z,13.57
2022-10-10T03:00:45.421Z,13.47
2022-10-10T03:03:12.071Z,13.83
2022-10-10T03:05:38.614Z,13.74
2022-10-10T03:08:10.649Z,13.68
2022-10-10T03:10:38.471Z,13.61
2022-10-10T03:13:04.958Z,13.50
2022-10-10T03:15:31.545Z,13.54
2022-10-10T03:17:58.038Z,13.63
2022-10-10T03:20:24.550Z,13.68
2022-10-10T03:22:51.220Z,13.77
2022-10-10T03:25:17.894Z,13.64
2022-10-10T03:27:44.506Z,13.64
2022-10-10T03:30:11.590Z,13.69
2022-10-10T03:32:38.085Z,13.57
2022-10-10T03:35:04.909Z,13.65
2022-10-10T03:37:34.607Z,13.67
2022-10-10T03:40:01.087Z,13.33
2022-10-10T03:42:27.626Z,13.20
2022-10-10T03:44:54.147Z,13.10
2022-10-10T03:47:20.638Z,13.49
2022-10-10T03:49:50.033Z,13.42
2022-10-10T03:52:18.583Z,13.69
2022-10-10T03:54:45.068Z,13.55
2022-10-10T03:57:12.705Z,13.35
2022-10-10T03:59:39.207Z,13.02
2022-10-10T04:02:05.689Z,12.86
2022-10-10T04:04:32.208Z,12.69
2022-10-10T04:06:58.798Z,12.82
2022-10-10T04:09:25.407Z,13.09
2022-10-10T04:11:51.893Z,13.19
2022-10-10T04:14:19.044Z,13.02
2022-10-10T04:16:45.538Z,13.18
2022-10-10T04:19:12.080Z,13.17
2022-10-10T04:21:38.583Z,13.20
2022-10-10T04:24:05.308Z,13.37
2022-10-10T04:26:31.901Z,13.48
2022-10-10T04:28:58.829Z,13.50
2022-10-10T04:31:25.365Z,13.49
2022-10-10T04:33:51.935Z,13.35
2022-10-10T04:36:21.801Z,13.22
2022-10-10T04:38:50.933Z,13.01
2022-10-10T04:41:17.558Z,12.88
2022-10-10T04:43:44.053Z,12.82
2022-10-10T04:46:10.820Z,12.74
2022-10-10T04:48:37.782Z,12.58
2022-10-10T04:51:04.574Z,12.60
2022-10-10T04:53:31.146Z,12.73
2022-10-10T04:55:57.657Z,12.77
2022-10-10T04:58:24.172Z,12.86
2022-10-10T05:00:55.024Z,12.77
2022-10-10T05:03:23.358Z,12.61
2022-10-10T05:05:53.763Z,12.67
2022-10-10T05:08:20.801Z,12.94
2022-10-10T05:10:48.096Z,12.97
2022-10-10T05:13:15.991Z,12.90
2022-10-10T05:15:43.106Z,12.83
2022-10-10T05:18:09.636Z,12.82
2022-10-10T05:20:36.486Z,12.91
2022-10-10T05:23:03.530Z,12.74
2022-10-10T05:25:30.220Z,12.60
2022-10-10T05:27:56.821Z,12.36
2022-10-10T05:30:23.317Z,12.56
2022-10-10T05:32:50.098Z,12.33
2022-10-10T05:35:17.599Z,12.23
2022-10-10T05:37:44.095Z,12.12
2022-10-10T05:40:11.387Z,12.07
2022-10-10T05:42:37.894Z,11.94
2022-10-10T05:45:04.690Z,12.09
2022-10-10T05:47:31.277Z,11.99
2022-10-10T05:49:57.786Z,11.94
2022-10-10T05:52:24.302Z,11.77
2022-10-10T05:54:50.828Z,11.86
2022-10-10T05:57:17.358Z,12.15
2022-10-10T05:59:43.946Z,12.18
2022-10-10T06:02:12.694Z,12.13
2022-10-10T06:04:39.435Z,12.13
2022-10-10T06:07:06.033Z,12.13
2022-10-10T06:09:32.753Z,12.24
2022-10-10T06:11:59.239Z,12.30
2022-10-10T06:14:25.787Z,12.68
2022-10-10T06:16:54.601Z,12.80
2022-10-10T06:19:21.449Z,12.59
2022-10-10T06:21:49.283Z,12.57
2022-10-10T06:24:16.084Z,12.39
2022-10-10T06:26:42.913Z,12.56
2022-10-10T06:29:09.739Z,12.58
2022-10-10T06:31:39.563Z,12.60
2022-10-10T06:34:06.919Z,12.62
2022-10-10T06:36:33.420Z,12.68
2022-10-10T06:38:59.974Z,12.83
2022-10-10T06:41:26.570Z,12.58
2022-10-10T06:43:54.714Z,12.85
2022-10-10T06:46:21.240Z,12.94
2022-10-10T06:48:47.849Z,13.10
2022-10-10T06:51:15.867Z,13.22
2022-10-10T06:53:43.099Z,13.23
2022-10-10T06:56:17.999Z,13.27
2022-10-10T06:58:44.828Z,13.19
2022-10-10T07:01:11.903Z,13.36
2022-10-10T07:03:38.803Z,13.37
2022-10-10T07:06:08.910Z,13.47
2022-10-10T07:08:35.423Z,13.51
2022-10-10T07:11:02.594Z,13.69
2022-10-10T07:13:29.160Z,13.59
2022-10-10T07:15:55.739Z,14.02
2022-10-10T07:18:22.755Z,14.02
2022-10-10T07:20:51.992Z,14.33
2022-10-10T07:23:18.558Z,14.54
2022-10-10T07:25:48.154Z,14.78
2022-10-10T07:28:14.809Z,15.00
2022-10-10T07:30:43.852Z,15.45
2022-10-10T07:33:14.376Z,15.81
2022-10-10T07:35:43.460Z,16.05
2022-10-10T07:38:12.883Z,16.30
2022-10-10T07:40:41.506Z,16.63
2022-10-10T07:43:08.100Z,16.93
2022-10-10T07:45:37.409Z,17.28
2022-10-10T07:48:04.655Z,17.57
2022-10-10T07:50:31.179Z,17.54
2022-10-10T07:53:00.094Z,17.66
2022-10-10T07:55:29.470Z,17.74
2022-10-10T07:57:56.273Z,18.01
2022-10-10T08:00:36.341Z,18.41
2022-10-10T08:03:03.054Z,18.79
2022-10-10T08:05:32.345Z,19.08
2022-10-10T08:07:58.845Z,19.49
2022-10-10T08:10:28.844Z,19.80
2022-10-10T08:12:55.894Z,19.89
2022-10-10T08:15:22.442Z,19.95
2022-10-10T08:17:49.387Z,20.00
2022-10-10T08:20:16.548Z,20.31
2022-10-10T08:22:43.047Z,20.55
2022-10-10T08:25:09.849Z,20.67
2022-10-10T08:27:36.390Z,20.54
2022-10-10T08:30:03.134Z,20.53
2022-10-10T08:32:32.120Z,20.52
2022-10-10T08:34:58.657Z,20.93
2022-10-10T08:37:33.822Z,21.42
2022-10-10T08:40:03.173Z,21.50
2022-10-10T08:42:50.437Z,21.42
2022-10-10T08:45:39.412Z,21.40
2022-10-10T08:48:16.440Z,21.89
2022-10-10T08:50:51.687Z,22.20
2022-10-10T08:53:28.824Z,22.43
2022-10-10T08:55:58.980Z,22.83
2022-10-10T08:58:34.611Z,23.08
2022-10-10T09:01:30.182Z,23.25
2022-10-10T09:04:04.887Z,23.37
2022-10-10T09:07:05.850Z,23.15
2022-10-10T09:10:01.009Z,23.03
2022-10-10T09:12:42.205Z,23.17
2022-10-10T09:15:16.706Z,23.33
2022-10-10T09:18:25.665Z,23.80
2022-10-10T09:21:22.512Z,24.30
2022-10-10T09:23:57.559Z,24.52
2022-10-10T09:26:31.386Z,24.72
2022-10-10T09:29:08.563Z,25.43
2022-10-10T09:31:51.413Z,25.73
2022-10-10T09:34:35.903Z,25.58
2022-10-10T09:37:04.007Z,25.16
2022-10-10T09:39:57.310Z,24.90
2022-10-10T09:42:38.766Z,25.54
2022-10-10T09:45:21.149Z,25.73
2022-10-10T09:47:52.151Z,26.15
2022-10-10T09:50:19.365Z,25.81
2022-10-10T09:52:47.849Z,25.74
2022-10-10T09:55:26.804Z,25.23
2022-10-10T09:57:58.758Z,25.20
2022-10-10T10:00:35.891Z,25.67
2022-10-10T10:03:12.403Z,25.65
2022-10-10T10:05:40.767Z,25.58
2022-10-10T10:08:38.744Z,25.52
2022-10-10T10:11:06.001Z,25.53
2022-10-10T10:13:36.066Z,25.63
2022-10-10T10:16:14.229Z,25.70
2022-10-10T10:18:46.739Z,25.73
2022-10-10T10:21:23.441Z,25.67
2022-10-10T10:23:51.952Z,25.40
2022-10-10T10:26:30.690Z,25.30
2022-10-10T10:29:00.441Z,25.75
2022-10-10T10:31:45.108Z,25.75
2022-10-10T10:34:38.323Z,25.48
2022-10-10T10:37:18.953Z,25.34
2022-10-10T10:40:30.371Z,25.01
2022-10-10T10:43:29.324Z,24.90
2022-10-10T10:45:58.229Z,24.67
2022-10-10T10:48:48.391Z,24.22
2022-10-10T10:51:59.881Z,23.95
2022-10-10T10:55:02.713Z,23.98
2022-10-10T10:58:00.069Z,24.28
2022-10-10T11:05:17.531Z,25.23
2022-10-10T11:07:18.421Z,25.82
2022-10-10T11:09:52.971Z,26.19
2022-10-10T11:12:31.595Z,26.83
2022-10-10T11:15:04.446Z,27.59
2022-10-10T11:17:40.157Z,28.07
2022-10-10T11:20:46.608Z,28.23
2022-10-10T11:23:25.044Z,28.22
2022-10-10T11:26:07.616Z,28.41
2022-10-10T11:28:50.585Z,28.92
2022-10-10T11:31:24.033Z,28.44
2022-10-10T11:34:02.446Z,28.90
2022-10-10T11:36:31.896Z,29.10
2022-10-10T11:39:22.994Z,29.69
2022-10-10T11:41:53.840Z,29.92
2022-10-10T11:44:37.854Z,29.99
2022-10-10T11:47:13.743Z,30.05
2022-10-10T11:50:03.217Z,30.29
2022-10-10T11:52:51.629Z,30.11
2022-10-10T11:55:31.445Z,28.97
2022-10-10T11:58:33.475Z,27.89
2022-10-10T12:01:07.030Z,28.06
2022-10-10T12:03:33.640Z,28.44
2022-10-10T12:06:11.241Z,29.11
2022-10-10T12:08:42.129Z,29.14
2022-10-10T12:11:21.500Z,28.83
2022-10-10T12:13:54.930Z,29.05
2022-10-10T12:16:28.210Z,29.17
2022-10-10T12:19:01.430Z,29.63
2022-10-10T12:21:30.536Z,30.02
2022-10-10T12:24:14.132Z,30.44
2022-10-10T12:26:52.811Z,30.35
2022-10-10T12:29:57.574Z,29.97
2022-10-10T12:32:41.281Z,29.78
2022-10-10T12:35:35.857Z,29.59
2022-10-10T12:38:05.753Z,29.30
2022-10-10T12:40:33.728Z,28.89
2022-10-10T12:43:23.800Z,29.03
2022-10-10T12:46:17.296Z,29.08
2022-10-10T12:48:44.887Z,28.95
2022-10-10T12:51:21.720Z,29.30
2022-10-10T12:53:54.364Z,29.58
2022-10-10T12:56:37.438Z,29.68
2022-10-10T12:59:06.547Z,29.83
2022-10-10T13:01:36.936Z,29.82
2022-10-10T13:04:03.817Z,30.24
2022-10-10T13:06:40.047Z,30.91
2022-10-10T13:09:11.884Z,31.52
2022-10-10T13:11:56.263Z,32.08
2022-10-10T13:14:23.957Z,32.25
2022-10-10T13:16:50.510Z,32.41
2022-10-10T13:19:22.836Z,32.58
2022-10-10T13:21:51.976Z,32.69
2022-10-10T13:24:22.586Z,32.80
2022-10-10T13:26:52.480Z,32.89
2022-10-10T13:29:37.133Z,32.93
2022-10-10T13:32:07.271Z,32.87
2022-10-10T13:34:42.534Z,32.95
2022-10-10T13:37:17.578Z,32.84
2022-10-10T13:39:44.421Z,32.03
2022-10-10T13:42:38.696Z,31.25
2022-10-10T13:45:30.745Z,31.12
2022-10-10T13:48:03.463Z,31.41
2022-10-10T13:50:55.749Z,31.54
2022-10-10T13:53:31.026Z,31.78
2022-10-10T13:56:02.199Z,32.07
2022-10-10T13:58:38.992Z,32.02
2022-10-10T14:01:06.010Z,32.14
2022-10-10T14:03:33.878Z,31.94
2022-10-10T14:06:04.180Z,31.23
2022-10-10T14:08:33.714Z,29.99
2022-10-10T14:11:03.068Z,29.23
2022-10-10T14:13:33.693Z,28.53
2022-10-10T14:16:23.202Z,28.30
2022-10-10T14:18:50.015Z,27.91
2022-10-10T14:21:16.662Z,27.80
2022-10-10T14:23:43.517Z,27.70
2022-10-10T14:26:14.876Z,27.61
2022-10-10T14:28:41.612Z,27.41
2022-10-10T14:31:08.241Z,27.21
2022-10-10T14:33:35.014Z,27.08
2022-10-10T14:36:03.748Z,26.79
2022-10-10T14:38:30.592Z,26.79
2022-10-10T14:40:57.200Z,27.23
2022-10-10T14:43:24.505Z,27.70
2022-10-10T14:45:52.771Z,28.09
2022-10-10T14:48:19.683Z,28.42
2022-10-10T14:50:48.126Z,28.35
2022-10-10T14:53:15.849Z,28.18
2022-10-10T14:55:43.787Z,27.95
2022-10-10T14:58:15.166Z,27.68
2022-10-10T15:00:41.903Z,27.08
2022-10-10T15:03:08.484Z,26.70
2022-10-10T15:05:35.162Z,26.24
2022-10-10T15:08:03.921Z,25.96
2022-10-10T15:10:34.519Z,25.84
2022-10-10T15:13:01.571Z,25.49
2022-10-10T15:15:28.137Z,25.14
2022-10-10T15:17:56.538Z,25.03
2022-10-10T15:20:30.441Z,24.83
2022-10-10T15:23:02.217Z,24.75
2022-10-10T15:25:33.657Z,24.67
2022-10-10T15:28:05.841Z,24.66
2022-10-10T15:30:32.471Z,24.67
2022-10-10T15:32:58.996Z,24.45
2022-10-10T15:35:26.359Z,24.61
2022-10-10T15:37:53.330Z,24.33
2022-10-10T15:40:24.262Z,24.44
2022-10-10T15:42:51.191Z,24.29
2022-10-10T15:45:37.413Z,24.25
2022-10-10T15:48:08.898Z,24.15
2022-10-10T15:50:42.033Z,24.15
2022-10-10T15:53:08.742Z,23.97
2022-10-10T15:55:42.132Z,23.99
2022-10-10T15:58:08.702Z,23.92
2022-10-10T16:00:38.555Z,23.84
2022-10-10T16:03:07.582Z,23.78
2022-10-10T16:05:41.936Z,23.70
2022-10-10T16:08:12.203Z,23.42
2022-10-10T16:10:43.269Z,23.40
2022-10-10T16:13:10.220Z,23.05
2022-10-10T16:15:39.846Z,22.85
2022-10-10T16:18:09.291Z,22.81
2022-10-10T16:20:39.245Z,22.62
2022-10-10T16:23:07.968Z,22.60
2022-10-10T16:25:34.580Z,22.40
2022-10-10T16:28:01.212Z,22.42
2022-10-10T16:30:27.823Z,22.26
2022-10-10T16:32:54.402Z,22.29
2022-10-10T16:35:21.004Z,22.21
2022-10-10T16:37:47.561Z,21.96
2022-10-10T16:40:14.230Z,22.02
2022-10-10T16:42:40.763Z,21.90
2022-10-10T16:45:11.255Z,21.68
2022-10-10T16:47:40.980Z,21.61
2022-10-10T16:50:09.425Z,21.68
2022-10-10T16:52:40.740Z,21.48
2022-10-10T16:55:12.251Z,21.34
2022-10-10T16:57:40.607Z,21.43
2022-10-10T17:00:12.682Z,21.28
2022-10-10T17:02:42.537Z,21.12
2022-10-10T17:05:09.796Z,21.06
2022-10-10T17:07:36.404Z,21.06
2022-10-10T17:10:02.991Z,20.86
2022-10-10T17:12:29.522Z,20.76
2022-10-10T17:14:55.991Z,20.84
2022-10-10T17:17:22.798Z,20.75
2022-10-10T17:19:49.366Z,20.61
2022-10-10T17:22:16.431Z,20.56
2022-10-10T17:24:43.068Z,20.61
2022-10-10T17:27:09.592Z,20.60
2022-10-10T17:29:36.133Z,20.44
2022-10-10T17:32:06.354Z,20.42
2022-10-10T17:34:33.566Z,20.44
2022-10-10T17:37:00.053Z,20.47
2022-10-10T17:39:26.562Z,20.32
2022-10-10T17:41:53.192Z,20.33
2022-10-10T17:44:19.997Z,20.29
2022-10-10T17:46:46.621Z,20.21
2022-10-10T17:49:14.194Z,20.03
2022-10-10T17:51:41.796Z,19.93
2022-10-10T17:54:13.476Z,19.90
2022-10-10T17:56:44.655Z,19.88
2022-10-10T17:59:12.679Z,19.76
2022-10-10T18:01:43.458Z,19.73
2022-10-10T18:04:14.798Z,19.51
2022-10-10T18:06:41.857Z,19.56
2022-10-10T18:09:10.495Z,19.35
2022-10-10T18:11:37.077Z,19.42
2022-10-10T18:14:04.423Z,19.36
2022-10-10T18:16:34.344Z,19.31
2022-10-10T18:19:01.945Z,19.25
2022-10-10T18:21:28.759Z,19.07
2022-10-10T18:23:55.446Z,19.14
2022-10-10T18:26:25.952Z,19.15
2022-10-10T18:28:55.694Z,18.90
2022-10-10T18:31:28.074Z,19.02
2022-10-10T18:33:54.599Z,19.04
2022-10-10T18:36:24.394Z,18.84
2022-10-10T18:38:51.112Z,18.92
2022-10-10T18:41:22.946Z,18.94
2022-10-10T18:43:51.111Z,18.85
2022-10-10T18:46:19.824Z,18.76
2022-10-10T18:48:51.491Z,18.70
2022-10-10T18:51:24.513Z,18.64
2022-10-10T18:53:54.922Z,18.64
2022-10-10T18:56:24.724Z,18.45
2022-10-10T18:58:55.832Z,18.44
2022-10-10T19:01:25.061Z,18.33
2022-10-10T19:03:53.427Z,18.51
2022-10-10T19:06:20.512Z,18.31
2022-10-10T19:08:46.998Z,18.37
2022-10-10T19:11:24.553Z,18.33
2022-10-10T19:13:51.191Z,18.07
2022-10-10T19:16:18.417Z,18.26
2022-10-10T19:18:46.139Z,18.04
2022-10-10T19:21:18.456Z,18.01
2022-10-10T19:23:47.532Z,18.23
2022-10-10T19:26:18.039Z,17.97
2022-10-10T19:28:47.866Z,18.06
2022-10-10T19:31:18.785Z,18.04
2022-10-10T19:33:51.344Z,18.16
2022-10-10T19:36:18.250Z,18.16
2022-10-10T19:38:47.946Z,18.15
2022-10-10T19:41:16.674Z,18.05
2022-10-10T19:43:48.008Z,17.96
2022-10-10T19:46:19.172Z,18.13
2022-10-10T19:48:54.867Z,18.04
2022-10-10T19:51:21.535Z,18.11
2022-10-10T19:53:48.598Z,18.06
2022-10-10T19:56:25.662Z,17.77
2022-10-10T19:58:54.619Z,17.95
2022-10-10T20:01:28.230Z,17.88
2022-10-10T20:03:56.752Z,17.95
2022-10-10T20:06:23.345Z,17.86
2022-10-10T20:08:50.405Z,17.86
2022-10-10T20:11:19.842Z,17.87
2022-10-10T20:13:48.916Z,17.73
2022-10-10T20:16:16.543Z,17.87
2022-10-10T20:18:46.713Z,17.89
2022-10-10T20:21:19.728Z,17.89
2022-10-10T20:23:47.375Z,17.77
2022-10-10T20:26:22.415Z,17.74
2022-10-10T20:28:51.286Z,17.75
2022-10-10T20:31:21.854Z,17.79
2022-10-10T20:33:50.215Z,17.80
2022-10-10T20:36:18.034Z,17.75
2022-10-10T20:38:53.606Z,17.54
2022-10-10T20:41:20.941Z,17.72
2022-10-10T20:43:47.658Z,17.74
2022-10-10T20:46:19.816Z,17.67
2022-10-10T20:48:54.183Z,17.56
2022-10-10T20:51:21.453Z,17.77
2022-10-10T20:53:56.981Z,17.71
2022-10-10T20:56:25.041Z,17.78
2022-10-10T20:58:51.848Z,17.71
2022-10-10T21:01:21.612Z,17.78
2022-10-10T21:03:48.997Z,17.73
2022-10-10T21:06:24.522Z,17.77
2022-10-10T21:08:52.862Z,17.70
2022-10-10T21:11:20.647Z,17.69
2022-10-10T21:13:56.091Z,17.63
2022-10-10T21:16:30.172Z,17.59
2022-10-10T21:18:58.620Z,17.39
2022-10-10T21:21:27.696Z,17.28
2022-10-10T21:23:56.583Z,17.21
2022-10-10T21:26:26.602Z,17.37
2022-10-10T21:28:53.888Z,17.15
2022-10-10T21:31:29.093Z,17.01
2022-10-10T21:33:56.399Z,17.06
2022-10-10T21:36:25.430Z,16.99
2022-10-10T21:38:52.511Z,16.85
2022-10-10T21:41:20.963Z,16.98
2022-10-10T21:43:50.066Z,16.66
2022-10-10T21:46:19.519Z,16.83
2022-10-10T21:48:48.278Z,16.73
2022-10-10T21:51:18.239Z,16.66
2022-10-10T21:53:44.894Z,16.81
2022-10-10T21:56:11.866Z,16.76
2022-10-10T21:58:41.219Z,16.91
2022-10-10T22:01:11.970Z,16.94
2022-10-10T22:03:38.627Z,16.99
2022-10-10T22:06:10.178Z,16.98
2022-10-10T22:08:39.062Z,16.80
2022-10-10T22:11:10.564Z,16.95
2022-10-10T22:13:37.326Z,16.83
2022-10-10T22:16:04.590Z,16.82
2022-10-10T22:18:31.873Z,16.94
2022-10-10T22:21:01.483Z,16.85
2022-10-10T22:23:28.058Z,16.80
2022-10-10T22:25:56.181Z,16.73
2022-10-10T22:28:23.000Z,16.80
2022-10-10T22:30:52.368Z,16.92
2022-10-10T22:33:21.114Z,16.70
2022-10-10T22:35:47.679Z,16.74
2022-10-10T22:38:14.202Z,16.65
2022-10-10T22:40:40.779Z,16.61
2022-10-10T22:43:07.353Z,16.79
2022-10-10T22:45:34.159Z,16.63
2022-10-10T22:48:00.970Z,16.64
2022-10-10T22:50:27.742Z,16.79
2022-10-10T22:52:54.339Z,16.65
2022-10-10T22:55:24.199Z,16.83
2022-10-10T22:57:51.161Z,16.72
2022-10-10T23:00:18.138Z,16.86
2022-10-10T23:02:44.824Z,16.74
2022-10-10T23:05:11.686Z,16.79
2022-10-10T23:07:38.437Z,16.68
2022-10-10T23:10:05.449Z,16.79
2022-10-10T23:12:32.016Z,16.49
2022-10-10T23:14:58.772Z,16.50
2022-10-10T23:17:25.269Z,16.52
2022-10-10T23:19:54.255Z,16.36
2022-10-10T23:22:20.774Z,16.54
2022-10-10T23:24:47.516Z,16.51
2022-10-10T23:27:14.069Z,16.48
2022-10-10T23:29:40.602Z,16.39
2022-10-10T23:32:07.155Z,16.34
2022-10-10T23:34:33.826Z,16.04
2022-10-10T23:37:00.371Z,16.27
2022-10-10T23:39:26.906Z,16.19
2022-10-10T23:41:56.487Z,16.01
2022-10-10T23:44:25.216Z,16.09
2022-10-10T23:46:51.842Z,15.97
2022-10-10T23:49:18.394Z,15.77
2022-10-10T23:51:44.968Z,15.97
2022-10-10T23:54:11.484Z,15.87
2022-10-10T23:56:38.055Z,15.99
2022-10-10T23:59:04.599Z,15.77
